Current MesoWest Utah Air Quality Observations

This page provides access to real-time provisional air quality observations collected within the previous 60 minutes from resources across Utah. Included are fixed-site monitors deployed by the Utah Division of Air Quality, the University of Utah, Meteorological Solutions Inc., and the PurpleAir citizen-science network. Additionally, monitors deployed on UTA TRAX light rail cars, vehicles, and KSL-TV Chopper 5 may also be available at various times.

*Note: The particulate observations shown here are from a wide variety of sensors, each with their own strengths and weaknesses. Some sensors (deployed on the mobile platforms and some fixed sites) can occasionally record higher values when the air contains a lot of PM2.5 as well as excess moisture (such as dense fog).

The menu on the top-left corner of the map can be used to show or hide measurements these various resources.

Change Map View:


On the interactive map, observations on board Utah Transportation Authority TRAX light rail cars and other mobile sources are shown. The larger markers represent the most recent collected observation, with trailing transparent markers representing older observations as the platform moves. Diamond markers represent data from frieght trucks. Circle markers represent data from TRAX and other mobile sources. Additional markers are fixed-site observations collected by MesoWest (available via the Synoptic Data API Services) from equipment operated by the Utah Division of Air Quality, Meteorological Solutions Inc., the University of Utah Department of Atmospheric Sciences (squares), AirU (triangles), and the PurpleAir networks (triangles). Marker color is based on the observation value according to the legend on the map.

Weather observations from of the Synoptic Data API Services can be plotted by clicking the "Load Weather Obs" button above the map. Observations will be plotted in wind barb format similar to MesoWest. Red numbers indicate temperature in degrees Celsius. Green numbers indicate relative humidity. Wind barbs show wind speed in meters per second (one full barb is 5 meters per second). Wind gust values larger than 5 meters per second are also shown in yellow if available.

The table below provides the most recent pm2.5 concentration observation collected from each platform available on the map, with links to time series graphs available as well to show data over the previous 24 hours. Rows can be sorted by clicking on the table headers.

*Note: PurpleAir observations are now utilizing an initial correction factor applied within their algorithms. Both the original and corrected datasets are available via MesoWest.

Currently 2019-12-14 22:30 MT (2019-12-15 05:30 UTC)
TypeStationLast Record AvailablePM2.5 ConcentrationAdditional Links
MobileUTA TRAX 1136 (TRX01)2019-12-14 22:25:00 MT2.00 ug/m324hr Graph
MobileUTA TRAX 1104 (TRX02)2019-12-14 22:25:30 MT2.00 ug/m324hr Graph
MobileUTA TRAX 1034 (TRX03)2019-12-14 22:25:30 MT3.00 ug/m324hr Graph
MobileTRAX Rail Line (RAIL1)2019-12-14 22:25:30 MT2.00 ug/m324hr Graph
MobileTRAX Hawthorne (HAWTH)2019-12-14 22:25:30 MT1.00 ug/m324hr Graph
In-SituU of U Mountain Met Lab (MTMET)2019-12-14 22:25 MT0.28 ug/m324hr Graph
In-SituNeil Armstrong Academy (NAA)2019-12-14 22:25 MT0.00 ug/m324hr Graph
In-SituU of U William Browning Building (WBB)2019-12-14 22:25 MT0.11 ug/m324hr Graph
In-SituThe Waterford School (WTRFD)2019-12-14 22:25 MT1.03 ug/m324hr Graph
In-SituDaybreak (UADBK)2019-12-14 22:25 MT2.34 ug/m324hr Graph
In-SituSugarhouse (UASUG)2019-12-14 22:25 MT0.74 ug/m324hr Graph
In-SituBountiful - Viewmont (QBV)2019-12-14 22:00 MT4.20 ug/m324hr Graph
In-SituCopperview (QCV)2019-12-14 22:00 MT5.10 ug/m324hr Graph
In-SituErda (QED)2019-12-14 22:00 MT4.20 ug/m324hr Graph
In-SituHerriman (QH3)2019-12-14 22:00 MT4.90 ug/m324hr Graph
In-SituHawthorne (QHW)2019-12-14 21:00 MT3.90 ug/m324hr Graph
In-SituLindon (QLN)2019-12-14 22:00 MT4.90 ug/m324hr Graph
In-SituMagna (QMA)2019-12-14 22:00 MT0.80 ug/m324hr Graph
In-SituNear Road (QNR)2019-12-14 22:00 MT6.90 ug/m324hr Graph
In-SituRose Park (QRP)2019-12-14 22:00 MT3.20 ug/m324hr Graph
In-SituSpanish Fork (QSF)2019-12-14 22:00 MT6.30 ug/m324hr Graph
In-SituSmithfield (QSM)2019-12-14 22:00 MT6.70 ug/m324hr Graph
In-SituPreston PM25 BAM (A4503)2019-12-14 21:00 MT0.00 ug/m324hr Graph
In-SituTimpanogos Cave (A4547)2019-12-14 20:00 MT2.00 ug/m324hr Graph
In-SituAirU SA002 (002AQ)2019-12-14 22:15 MT0.00 ug/m324hr Graph
In-SituAirU SA005 (005AQ)2019-12-14 22:15 MT0.00 ug/m324hr Graph
In-SituAirU SA006 (006AQ)2019-12-14 22:15 MT0.15 ug/m324hr Graph
In-SituAirU SA007 (007AQ)2019-12-14 22:15 MT0.00 ug/m324hr Graph
In-SituAirU SA008 (008AQ)2019-12-14 22:15 MT1.57 ug/m324hr Graph
In-SituAirU SA011 (011AQ)2019-12-14 22:15 MT0.03 ug/m324hr Graph
In-SituAirU SA013 (013AQ)2019-12-14 22:15 MT0.03 ug/m324hr Graph
In-SituAirU SA017 (017AQ)2019-12-14 22:15 MT0.01 ug/m324hr Graph
In-SituAirU SA021 (021AQ)2019-12-14 22:15 MT0.00 ug/m324hr Graph
In-SituAirU SA023 (023AQ)2019-12-14 22:15 MT5.99 ug/m324hr Graph
In-SituAirU SA024 (024AQ)2019-12-14 22:15 MT0.00 ug/m324hr Graph
In-SituAirU SA026 (026AQ)2019-12-14 22:15 MT0.00 ug/m324hr Graph
In-SituAirU SA027 (027AQ)2019-12-14 22:15 MT0.59 ug/m324hr Graph
In-SituAirU SA032 (032AQ)2019-12-14 21:55 MT2.75 ug/m324hr Graph
In-SituAirU SA033 (033AQ)2019-12-14 22:15 MT1.74 ug/m324hr Graph
In-SituAirU SA036 (036AQ)2019-12-14 22:15 MT1.60 ug/m324hr Graph
In-SituAirU SA037 (037AQ)2019-12-14 22:15 MT0.00 ug/m324hr Graph
In-SituAirU SA038 (038AQ)2019-12-14 22:15 MT6.30 ug/m324hr Graph
In-SituAirU SA039 (039AQ)2019-12-14 22:15 MT3.20 ug/m324hr Graph
In-SituAirU SA040 (040AQ)2019-12-14 22:15 MT0.00 ug/m324hr Graph
In-SituAirU SA041 (041AQ)2019-12-14 22:15 MT1.05 ug/m324hr Graph
In-SituAirU SA042 (042AQ)2019-12-14 22:15 MT16.61 ug/m324hr Graph
In-SituAirU SA043 (043AQ)2019-12-14 22:15 MT0.00 ug/m324hr Graph
In-SituAirU SA044 (044AQ)2019-12-14 22:15 MT1.75 ug/m324hr Graph
In-SituAirU SA045 (045AQ)2019-12-14 22:15 MT6.84 ug/m324hr Graph
In-SituAirU SA046 (046AQ)2019-12-14 22:15 MT0.79 ug/m324hr Graph
In-SituAirU SA047 (047AQ)2019-12-14 22:15 MT0.00 ug/m324hr Graph
In-SituAirU SA050 (050AQ)2019-12-14 22:15 MT1.31 ug/m324hr Graph
In-SituAirU SA053 (053AQ)2019-12-14 22:15 MT8.69 ug/m324hr Graph
In-SituAirU SA056 (056AQ)2019-12-14 22:15 MT2.36 ug/m324hr Graph
In-SituAirU SA058 (058AQ)2019-12-14 22:05 MT0.00 ug/m324hr Graph
In-SituAirU SA059 (059AQ)2019-12-14 22:15 MT0.00 ug/m324hr Graph
In-SituAirU SA063 (063AQ)2019-12-14 22:15 MT0.00 ug/m324hr Graph
In-SituAirU SA066 (066AQ)2019-12-14 22:15 MT3.58 ug/m324hr Graph
In-SituAirU SA069 (069AQ)2019-12-14 22:15 MT0.94 ug/m324hr Graph
In-SituAirU SA072 (072AQ)2019-12-14 22:15 MT1.24 ug/m324hr Graph
In-SituAirU SA076 (076AQ)2019-12-14 22:15 MT0.00 ug/m324hr Graph
In-SituAirU SA077 (077AQ)2019-12-14 22:15 MT1.21 ug/m324hr Graph
In-SituAirU SA079 (079AQ)2019-12-14 22:15 MT4.39 ug/m324hr Graph
In-SituAirU SA081 (081AQ)2019-12-14 21:45 MT0.00 ug/m324hr Graph
In-SituAirU SA082 (082AQ)2019-12-14 22:15 MT0.00 ug/m324hr Graph
In-SituAirU SA083 (083AQ)2019-12-14 22:15 MT4.08 ug/m324hr Graph
In-SituAirU SA087 (087AQ)2019-12-14 22:15 MT0.00 ug/m324hr Graph
In-SituAirU SA089 (089AQ)2019-12-14 20:30 MT0.52 ug/m324hr Graph
In-SituAirU SA092 (092AQ)2019-12-14 22:15 MT0.00 ug/m324hr Graph
In-SituAirU SA094 (094AQ)2019-12-14 22:15 MT0.00 ug/m324hr Graph
In-SituAirU SA095 (095AQ)2019-12-14 22:15 MT2.06 ug/m324hr Graph
In-SituAirU SA096 (096AQ)2019-12-14 22:15 MT0.23 ug/m324hr Graph
In-SituAirU SA099 (099AQ)2019-12-14 22:15 MT2.64 ug/m324hr Graph
In-SituAirU SA112 (112AQ)2019-12-14 22:15 MT1.20 ug/m324hr Graph
In-SituAirU SA113 (113AQ)2019-12-14 22:15 MT0.12 ug/m324hr Graph
In-SituAirU SA116 (116AQ)2019-12-14 22:15 MT0.00 ug/m324hr Graph
In-SituAirU SA120 (120AQ)2019-12-14 22:15 MT0.17 ug/m324hr Graph
In-SituAirU SA122 (122AQ)2019-12-14 22:15 MT2.11 ug/m324hr Graph
In-SituAirU SA123 (123AQ)2019-12-14 22:15 MT0.28 ug/m324hr Graph
In-SituAirU SA127 (127AQ)2019-12-14 22:15 MT0.41 ug/m324hr Graph
In-SituAirU SA128 (128AQ)2019-12-14 22:15 MT0.00 ug/m324hr Graph
In-SituAirU SA131 (131AQ)2019-12-14 22:15 MT1.99 ug/m324hr Graph
In-SituAirU SA135 (135AQ)2019-12-14 22:15 MT0.00 ug/m324hr Graph
In-SituAirU SA138 (138AQ)2019-12-14 22:15 MT1.93 ug/m324hr Graph
In-SituAirU SA139 (139AQ)2019-12-14 22:15 MT1.73 ug/m324hr Graph
In-SituAirU SA141 (141AQ)2019-12-14 22:15 MT1.72 ug/m324hr Graph
In-SituAirU SA144 (144AQ)2019-12-14 22:15 MT0.65 ug/m324hr Graph
In-SituAirU SA147 (147AQ)2019-12-14 22:15 MT1.18 ug/m324hr Graph
In-SituAirU SA150 (150AQ)2019-12-14 22:15 MT1.34 ug/m324hr Graph
In-SituAirU SA152 (152AQ)2019-12-14 22:15 MT0.00 ug/m324hr Graph
In-SituAirU SA156 (156AQ)2019-12-14 22:15 MT8.13 ug/m324hr Graph
In-SituAirU SA159 (159AQ)2019-12-14 22:15 MT0.62 ug/m324hr Graph
In-SituAirU SA160 (160AQ)2019-12-14 22:15 MT0.00 ug/m324hr Graph
In-SituAirU SA161 (161AQ)2019-12-14 22:15 MT1.81 ug/m324hr Graph
In-SituAirU SA164 (164AQ)2019-12-14 20:10 MT2.05 ug/m324hr Graph
In-SituAirU SA165 (165AQ)2019-12-14 22:15 MT11.11 ug/m324hr Graph
In-SituAirU SA166 (166AQ)2019-12-14 22:15 MT0.00 ug/m324hr Graph
In-SituAirU SA167 (167AQ)2019-12-14 22:15 MT1.75 ug/m324hr Graph
In-SituAirU SA168 (168AQ)2019-12-14 22:15 MT0.00 ug/m324hr Graph
In-SituAirU SA170 (170AQ)2019-12-14 22:15 MT0.00 ug/m324hr Graph
In-SituAirU SA172 (172AQ)2019-12-14 22:15 MT0.80 ug/m324hr Graph
In-SituAirU SA174 (174AQ)2019-12-14 22:00 MT1.44 ug/m324hr Graph
In-SituAirU SA176 (176AQ)2019-12-14 22:15 MT0.00 ug/m324hr Graph
In-SituAirU SA178 (178AQ)2019-12-14 22:15 MT1.12 ug/m324hr Graph
In-SituAirU SA179 (179AQ)2019-12-14 22:15 MT0.00 ug/m324hr Graph
In-SituAirU SA187 (187AQ)2019-12-14 22:15 MT0.55 ug/m324hr Graph
In-SituAirU SA194 (194AQ)2019-12-14 22:15 MT0.62 ug/m324hr Graph
In-SituAirU SA197 (197AQ)2019-12-14 22:15 MT6.09 ug/m324hr Graph
In-SituAirU SA200 (200AQ)2019-12-14 22:15 MT1.18 ug/m324hr Graph
In-SituAirU SA201 (201AQ)2019-12-14 22:15 MT4.83 ug/m324hr Graph
In-SituAirU SA203 (203AQ)2019-12-14 22:15 MT4.07 ug/m324hr Graph
In-SituAirU SA204 (204AQ)2019-12-14 22:15 MT2.48 ug/m324hr Graph
In-SituAirU SA206 (206AQ)2019-12-14 22:10 MT2.00 ug/m324hr Graph
In-SituAirU SA210 (210AQ)2019-12-14 22:15 MT0.59 ug/m324hr Graph
In-SituAirU SA212 (212AQ)2019-12-14 22:15 MT-0.33 ug/m324hr Graph
In-SituAirU SA213 (213AQ)2019-12-14 22:15 MT0.00 ug/m324hr Graph
In-SituAirU SA232 (232AQ)2019-12-14 22:15 MT0.00 ug/m324hr Graph
In-SituAirU SA235 (235AQ)2019-12-14 22:15 MT3.43 ug/m324hr Graph
In-SituAirU SA239 (239AQ)2019-12-14 22:15 MT2.21 ug/m324hr Graph
In-SituAirU SA6405 (405AQ)2019-12-14 22:15 MT0.00 ug/m324hr Graph
In-SituAirU SA6425 (425AQ)2019-12-14 22:15 MT0.00 ug/m324hr Graph
In-SituTcf home (2561P)2019-12-14 22:20 MT2.66 ug/m324hr Graph
In-SituTreasure Mtn Inn Main Street Park City (2563P)2019-12-14 22:20 MT0.67 ug/m324hr Graph
In-SituVernon Elementary (2564P)2019-12-14 22:20 MT1.98 ug/m324hr Graph
In-SituViewmont Elementary (2565P)2019-12-14 22:20 MT5.67 ug/m324hr Graph
In-SituViewmont High School (2566P)2019-12-14 22:20 MT6.11 ug/m324hr Graph
In-SituWeilenmann School of Discovery (2567P)2019-12-14 22:20 MT4.42 ug/m324hr Graph
In-SituWest Valley Fire Academy (2569P)2019-12-14 22:20 MT2.17 ug/m324hr Graph
In-SituWest Valley6500S Mountain View Corridor Trail (2570P)2019-12-14 22:20 MT1.75 ug/m324hr Graph
In-SituWest ValleyHarman Senior Recreation Center (2571P)2019-12-14 22:20 MT2.96 ug/m324hr Graph
In-SituWest ValleyRobert Frost Elementary (2572P)2019-12-14 22:20 MT2.96 ug/m324hr Graph
In-SituWoodland Hills Fir Drive (2573P)2019-12-14 22:20 MT0.27 ug/m324hr Graph
In-SituCenterville 1700 N Frontage Rd (2588P)2019-12-14 22:20 MT4.15 ug/m324hr Graph
In-SituLindon 200 S Pioneer Ln (2589P)2019-12-14 22:20 MT5.46 ug/m324hr Graph
In-SituCenterville Porter Walton Park (2590P)2019-12-14 22:20 MT6.86 ug/m324hr Graph
In-SituCenterville City Hall (2591P)2019-12-14 22:20 MT28.04 ug/m324hr Graph
In-SituCenterville Smoot Park (2592P)2019-12-14 22:20 MT34.76 ug/m324hr Graph
In-SituCenterville Jr High School (2595P)2019-12-14 22:20 MT7.52 ug/m324hr Graph
In-SituCenterville Public Works (2596P)2019-12-14 22:20 MT5.78 ug/m324hr Graph
In-SituMidvale Arkansas St.powered by UTOPIA Fiber (2599P)2019-12-14 22:20 MT7.76 ug/m324hr Graph
In-SituLindon 600 N. 200 E. (2603P)2019-12-14 22:20 MT4.85 ug/m324hr Graph
In-SituLindon Skyline Dr. Dry Canyon Dr.powered by UTOPIA Fiber (2605P)2019-12-14 22:20 MT1.12 ug/m324hr Graph
In-SituLindon Creekside Park (2609P)2019-12-14 22:20 MT4.94 ug/m324hr Graph
In-SituLindon Aquatics Center (2610P)2019-12-14 22:20 MT17.99 ug/m324hr Graph
In-SituLindonHarrison Park (2611P)2019-12-14 22:20 MT1.34 ug/m324hr Graph
In-SituPayson Mountain View Hospital (2624P)2019-12-14 22:20 MT4.10 ug/m324hr Graph
In-SituPaysonPeteetneet Academy (2625P)2019-12-14 22:20 MT10.12 ug/m324hr Graph
In-SituPayson 600 W. 800 S.powered by UTOPIA Fiber (2651P)2019-12-14 22:20 MT1.23 ug/m324hr Graph
In-SituPayson Dry Mountain Parkpowered by UTOPIA Fiber (2652P)2019-12-14 22:20 MT1.78 ug/m324hr Graph
In-SituPaysonGene Hillman Recreation Complexpowered by UTOPIA Fiber (2653P)2019-12-14 22:20 MT1.38 ug/m324hr Graph
In-SituPaysonRidgestone Condominiumspowered by UTOPIA Fiber (2669P)2019-12-14 22:20 MT5.36 ug/m324hr Graph
In-SituOaks (2754P)2019-12-14 22:20 MT0.02 ug/m324hr Graph
In-SituMorgan Riverside Park (2871P)2019-12-14 22:20 MT2.80 ug/m324hr Graph
In-SituLayton Vae View Park (3007P)2019-12-14 22:20 MT2.95 ug/m324hr Graph
In-SituLaytonChelsie Meadows Park (3009P)2019-12-14 22:20 MT3.01 ug/m324hr Graph
In-SituLayton3675 W. 75 N.powered by UTOPIA Fiber (3010P)2019-12-14 22:20 MT8.12 ug/m324hr Graph
In-SituWillowbend (3019P)2019-12-14 22:20 MT2.94 ug/m324hr Graph
In-SituSHS (3020P)2019-12-14 20:50 MT2.28 ug/m324hr Graph
In-SituVOC 7873 (3040P)2019-12-14 22:20 MT4.23 ug/m324hr Graph
In-SituCANYON RIM - DEVEREAUX (3076P)2019-12-14 22:20 MT1.50 ug/m324hr Graph
In-SituDavid Way (3142P)2019-12-14 22:20 MT21.41 ug/m324hr Graph
In-SituMidway Elementary School (3158P)2019-12-14 22:20 MT0.69 ug/m324hr Graph
In-SituSoldier Hollow Charter School (3159P)2019-12-14 22:20 MT1.52 ug/m324hr Graph
In-SituFairfield Junior High (3163P)2019-12-14 22:20 MT2.75 ug/m324hr Graph
In-SituDowntown Salt Lake City (3170P)2019-12-14 22:20 MT4.70 ug/m324hr Graph
In-SituRiver Park (3171P)2019-12-14 22:20 MT6.39 ug/m324hr Graph
In-SituOak Hills (3179P)2019-12-14 22:20 MT0.91 ug/m324hr Graph
In-SituSilver Summit (3251P)2019-12-14 22:20 MT5.46 ug/m324hr Graph
In-SituBountiful Blvd Indian Springs (3259P)2019-12-14 22:20 MT0.78 ug/m324hr Graph
In-SituLayton1100 W Hill Field Rd. (3266P)2019-12-14 22:20 MT5.23 ug/m324hr Graph
In-SituRowland Hall One (3274P)2019-12-14 22:20 MT0.55 ug/m324hr Graph
In-SituRowland Hall Two (3275P)2019-12-14 22:20 MT0.61 ug/m324hr Graph
In-SituMt.Haven (3278P)2019-12-14 22:20 MT6.62 ug/m324hr Graph
In-SituCopper Creek (3282P)2019-12-14 22:20 MT17.61 ug/m324hr Graph
In-SituTFE (3284P)2019-12-14 22:20 MT12.50 ug/m324hr Graph
In-SituAspen Road (3292P)2019-12-14 22:20 MT0.38 ug/m324hr Graph
In-SituLeslie Tryon (3294P)2019-12-14 22:20 MT3.64 ug/m324hr Graph
In-SituFlight Park VOC (3299P)2019-12-14 22:20 MT5.19 ug/m324hr Graph
In-SituUtah State University - Edith Bowen Lab School (3309P)2019-12-14 22:20 MT6.48 ug/m324hr Graph
In-SituOrem Community Park (PU109)2019-12-14 22:20 MT1.08 ug/m324hr Graph
In-SituOrem Community Park B (PU110)2019-12-14 22:20 MT0.69 ug/m324hr Graph
In-SituAlpine 4 Woots Landing (PU111)2019-12-14 22:20 MT2.85 ug/m324hr Graph
In-SituAlpine 4 Woots Landing B (PU112)2019-12-14 22:20 MT2.61 ug/m324hr Graph
In-SituTesoro HQ 825 N 300 W (PU117)2019-12-14 22:20 MT0.09 ug/m324hr Graph
In-SituTesoro HQ 825 N 300 W B (PU118)2019-12-14 22:20 MT0.32 ug/m324hr Graph
In-SituEast Murray P1 (PU123)2019-12-14 22:20 MT19.47 ug/m324hr Graph
In-SituEast Murray P2 (PU124)2019-12-14 22:20 MT13.45 ug/m324hr Graph
In-SituOctopod (PU125)2019-12-14 22:20 MT1.66 ug/m324hr Graph
In-SituSterling Drive (PU130)2019-12-14 22:20 MT21.18 ug/m324hr Graph
In-SituOrem Scera Park (PU131)2019-12-14 22:20 MT0.54 ug/m324hr Graph
In-SituOrem Scera Park B (PU132)2019-12-14 22:20 MT0.77 ug/m324hr Graph
In-SituEnsign P1 (PU135)2019-12-14 22:20 MT4.48 ug/m324hr Graph
In-SituEnsign P2 (PU136)2019-12-14 22:20 MT0.00 ug/m324hr Graph
In-SituSterling Drive B (PU137)2019-12-14 22:20 MT13.88 ug/m324hr Graph
In-SituTooele South P1 (PU144)2019-12-14 22:20 MT2.25 ug/m324hr Graph
In-SituTooele South P2 (PU145)2019-12-14 22:20 MT21.60 ug/m324hr Graph
In-SituFlight Park North 2 (PU146)2019-12-14 22:20 MT5.12 ug/m324hr Graph
In-SituFlight Park North 2 B (PU147)2019-12-14 22:20 MT4.49 ug/m324hr Graph
In-SituWeber-Davis Line P1 (PU150)2019-12-14 22:20 MT0.42 ug/m324hr Graph
In-SituWeber-Davis Line P2 (PU151)2019-12-14 22:20 MT4.03 ug/m324hr Graph
In-SituPinebrook (PU164)2019-12-14 22:20 MT4.13 ug/m324hr Graph
In-SituPinebrook B (PU165)2019-12-14 22:20 MT2.56 ug/m324hr Graph
In-SituThe Avenues (PU166)2019-12-14 22:20 MT0.00 ug/m324hr Graph
In-SituThe Avenues B (PU167)2019-12-14 22:20 MT25.33 ug/m324hr Graph
In-SituOrem 1430S 400W (PU174)2019-12-14 22:20 MT2.79 ug/m324hr Graph
In-SituWasatch Hollow (PU175)2019-12-14 22:20 MT0.91 ug/m324hr Graph
In-SituOrem 1430S 400W B (PU176)2019-12-14 22:20 MT2.72 ug/m324hr Graph
In-SituOrchard Elementary (PU178)2019-12-14 22:20 MT1.87 ug/m324hr Graph
In-Situ17th St and Kiesel Ave (PU179)2019-12-14 22:20 MT10.90 ug/m324hr Graph
In-Situ90.9fm KRCL 2 (PU180)2019-12-14 22:20 MT1.77 ug/m324hr Graph
In-SituCanyon Rim (PU184)2019-12-14 22:20 MT0.35 ug/m324hr Graph
In-SituCosgriff Catholic School (PU185)2019-12-14 22:20 MT19.62 ug/m324hr Graph
In-SituDorchester 01 (PU186)2019-12-14 22:20 MT0.05 ug/m324hr Graph
In-SituOrem 575S 800E (PU187)2019-12-14 22:20 MT0.33 ug/m324hr Graph
In-SituDouglas 2 (PU188)2019-12-14 22:20 MT0.02 ug/m324hr Graph
In-SituDyacon (PU191)2019-12-14 22:20 MT40.71 ug/m324hr Graph
In-SituOV_Eden Wolf Creek (PU194)2019-12-14 22:20 MT0.13 ug/m324hr Graph
In-SituFruit Heights (PU195)2019-12-14 22:20 MT0.01 ug/m324hr Graph
In-SituLinden Circle (PU196)2019-12-14 22:20 MT0.02 ug/m324hr Graph
In-SituQuince and Apricot (PU202)2019-12-14 22:20 MT0.88 ug/m324hr Graph
In-SituSE Bountiful (PU203)2019-12-14 22:20 MT0.00 ug/m324hr Graph
In-SituOV_SouthFork (PU204)2019-12-14 22:20 MT0.58 ug/m324hr Graph
In-SituOrem 575S 800E B (PU206)2019-12-14 22:20 MT0.33 ug/m324hr Graph
In-SituThe McGillis School (PU207)2019-12-14 22:20 MT0.20 ug/m324hr Graph
In-SituBobwhite Ct (PU209)2019-12-14 22:20 MT0.97 ug/m324hr Graph
In-SituWillow Creek Golf (PU210)2019-12-14 22:20 MT0.86 ug/m324hr Graph
In-Situ17th St and Kiesel Ave B (PU211)2019-12-14 22:20 MT16.72 ug/m324hr Graph
In-Situ90.9fm KRCL 2 B (PU212)2019-12-14 22:20 MT1.89 ug/m324hr Graph
In-SituCanyon Rim B (PU216)2019-12-14 22:20 MT0.39 ug/m324hr Graph
In-SituCosgriff Catholic School B (PU217)2019-12-14 22:20 MT30.05 ug/m324hr Graph
In-SituDorchester 01 B (PU218)2019-12-14 22:20 MT0.05 ug/m324hr Graph
In-SituDouglas 2 B (PU219)2019-12-14 22:20 MT0.01 ug/m324hr Graph
In-SituDyacon B (PU221)2019-12-14 22:20 MT3.62 ug/m324hr Graph
In-SituOV_Eden Wolf Creek B (PU223)2019-12-14 22:20 MT0.00 ug/m324hr Graph
In-SituFruit Heights B (PU224)2019-12-14 22:20 MT0.00 ug/m324hr Graph
In-SituLinden Circle B (PU225)2019-12-14 22:20 MT0.00 ug/m324hr Graph
In-SituHelper B (PU226)2019-12-14 22:20 MT513.24 ug/m324hr Graph
In-SituOrchard Elementary B (PU231)2019-12-14 22:20 MT79.19 ug/m324hr Graph
In-SituBobwhite Ct B (PU233)2019-12-14 22:20 MT0.62 ug/m324hr Graph
In-SituQuince and Apricot B (PU234)2019-12-14 22:20 MT1.07 ug/m324hr Graph
In-SituSE Bountiful B (PU235)2019-12-14 22:20 MT0.00 ug/m324hr Graph
In-SituOV_SouthFork B (PU236)2019-12-14 22:20 MT0.42 ug/m324hr Graph
In-SituThe McGillis School B (PU239)2019-12-14 22:20 MT0.01 ug/m324hr Graph
In-SituAFM DDell Rd (PU241)2019-12-14 22:20 MT4.89 ug/m324hr Graph
In-SituWillow Creek Golf B (PU242)2019-12-14 22:20 MT0.37 ug/m324hr Graph
In-SituAFM DDell Rd B (PU246)2019-12-14 22:20 MT4.51 ug/m324hr Graph
In-SituCreekside Park (PU248)2019-12-14 22:20 MT7.70 ug/m324hr Graph
In-SituCreekside Park B (PU249)2019-12-14 22:20 MT10.45 ug/m324hr Graph
In-SituPineridge (PU252)2019-12-14 22:20 MT1.78 ug/m324hr Graph
In-SituPineridge B (PU253)2019-12-14 22:20 MT2.95 ug/m324hr Graph
In-SituEast Mill Creek (PU254)2019-12-14 22:20 MT0.30 ug/m324hr Graph
In-SituEast Mill Creek B (PU255)2019-12-14 22:20 MT0.34 ug/m324hr Graph
In-SituSouth Weber (PU259)2019-12-14 22:20 MT7.55 ug/m324hr Graph
In-SituMontessori Community School (PU260)2019-12-14 22:20 MT1.02 ug/m324hr Graph
In-SituMontessori Community School B (PU261)2019-12-14 22:20 MT1.00 ug/m324hr Graph
In-SituSpring City (PU262)2019-12-14 22:20 MT16.06 ug/m324hr Graph
In-SituSpring City B (PU263)2019-12-14 22:20 MT8.64 ug/m324hr Graph
In-SituOrem City Center Park (PU269)2019-12-14 22:20 MT1.38 ug/m324hr Graph
In-SituOrem City Center Park B (PU270)2019-12-14 22:20 MT2.28 ug/m324hr Graph
In-SituParadise - Utah (PU271)2019-12-14 22:20 MT4.91 ug/m324hr Graph
In-SituParadise - Utah B (PU272)2019-12-14 22:20 MT4.70 ug/m324hr Graph
In-Situterrace hills drive salt lake city (PU273)2019-12-14 22:20 MT3.08 ug/m324hr Graph
In-Situterrace hills drive salt lake city B (PU274)2019-12-14 22:20 MT0.02 ug/m324hr Graph
In-SituTraverse Mountain 2 (PU275)2019-12-14 22:20 MT8.71 ug/m324hr Graph
In-SituTraverse Mountain 2 B (PU276)2019-12-14 22:20 MT11.77 ug/m324hr Graph
In-SituKSL Mike Hale Acura Murray (PU281)2019-12-14 22:20 MT5.34 ug/m324hr Graph
In-SituKSL Mike Hale Acura Murray B (PU282)2019-12-14 22:20 MT4.30 ug/m324hr Graph
In-SituBlackhawk Station 1 (PU283)2019-12-14 22:20 MT8.14 ug/m324hr Graph
In-SituBlackhawk Station 1 B (PU284)2019-12-14 22:20 MT6.40 ug/m324hr Graph
In-SituBurch Creek Canyon (PU287)2019-12-14 22:20 MT0.01 ug/m324hr Graph
In-SituBurch Creek Canyon B (PU288)2019-12-14 22:20 MT0.14 ug/m324hr Graph
In-SituMountain Views - East Sandy (PU291)2019-12-14 22:20 MT0.01 ug/m324hr Graph
In-SituMountain Views - East Sandy B (PU292)2019-12-14 22:20 MT0.02 ug/m324hr Graph
In-SituLakeshore 2 B (PU297)2019-12-14 22:20 MT2.43 ug/m324hr Graph
In-SituHeber-East (PU304)2019-12-14 22:20 MT0.29 ug/m324hr Graph
In-SituHeber-East B (PU305)2019-12-14 22:20 MT0.85 ug/m324hr Graph
In-SituRiverton (PU306)2019-12-14 22:20 MT1.96 ug/m324hr Graph
In-SituRiverton B (PU307)2019-12-14 22:20 MT2.51 ug/m324hr Graph
In-SituSuncrest Vista Ridge (PU310)2019-12-14 22:20 MT13.46 ug/m324hr Graph
In-SituSuncrest Vista Ridge B (PU311)2019-12-14 22:20 MT11.92 ug/m324hr Graph
In-SituKSL Holbrook Elementary Bountiful (PU314)2019-12-14 22:20 MT0.00 ug/m324hr Graph
In-SituKSL Holbrook Elementary Bountiful B (PU315)2019-12-14 22:20 MT0.00 ug/m324hr Graph
In-SituBreathe easy Farr West (PU316)2019-12-14 22:20 MT2.62 ug/m324hr Graph
In-SituBreathe easy Farr West B (PU317)2019-12-14 22:20 MT3.04 ug/m324hr Graph
In-SituHistoric Downtown (PU321)2019-12-14 22:20 MT12.69 ug/m324hr Graph
In-SituHistoric Downtown B (PU322)2019-12-14 22:20 MT9.85 ug/m324hr Graph
In-SituLehi (PU325)2019-12-14 22:20 MT9.66 ug/m324hr Graph
In-SituLehi B (PU326)2019-12-14 22:20 MT9.92 ug/m324hr Graph
In-SituTaylorsville East (PU327)2019-12-14 22:20 MT5.22 ug/m324hr Graph
In-SituTaylorsville East B (PU328)2019-12-14 22:20 MT0.00 ug/m324hr Graph
In-SituAlpine Utah (PU331)2019-12-14 22:20 MT2.34 ug/m324hr Graph
In-SituAlpine Utah B (PU332)2019-12-14 22:20 MT146.78 ug/m324hr Graph
In-SituDraper CH (PU335)2019-12-14 22:20 MT3.40 ug/m324hr Graph
In-SituDraper CH B (PU336)2019-12-14 22:20 MT4.47 ug/m324hr Graph
In-SituLELAND (PU339)2019-12-14 22:20 MT7.56 ug/m324hr Graph
In-SituLELAND B (PU340)2019-12-14 22:20 MT9.37 ug/m324hr Graph
In-SituTremonton (PU341)2019-12-14 22:20 MT3.03 ug/m324hr Graph
In-SituTremonton B (PU342)2019-12-14 22:20 MT3.02 ug/m324hr Graph
In-SituSaratoga Springs - Harvest Hills (PU347)2019-12-14 22:20 MT2.21 ug/m324hr Graph
In-SituSaratoga Springs - Harvest Hills B (PU348)2019-12-14 22:20 MT2.04 ug/m324hr Graph
In-SituDuckworth (PU351)2019-12-14 22:20 MT4.83 ug/m324hr Graph
In-SituDuckworth B (PU352)2019-12-14 22:20 MT5.91 ug/m324hr Graph
In-SituOld Magna (PU353)2019-12-14 22:20 MT2.08 ug/m324hr Graph
In-SituOld Magna B (PU354)2019-12-14 22:20 MT3.11 ug/m324hr Graph
In-SituSchaeffer-George Outside (PU355)2019-12-14 22:20 MT0.00 ug/m324hr Graph
In-SituSchaeffer-George Outside B (PU356)2019-12-14 22:20 MT0.00 ug/m324hr Graph
In-SituSouth Olympus (PU357)2019-12-14 22:20 MT0.44 ug/m324hr Graph
In-SituSouth Olympus B (PU358)2019-12-14 22:20 MT0.23 ug/m324hr Graph
In-SituWasatch Hollow B (PU359)2019-12-14 22:20 MT1.08 ug/m324hr Graph
In-SituWasatch Mountain State Park (PU362)2019-12-14 22:20 MT0.06 ug/m324hr Graph
In-SituWasatch Mountain State Park B (PU363)2019-12-14 22:20 MT0.03 ug/m324hr Graph
In-SituHobble Creek Bench (PU364)2019-12-14 22:20 MT1.09 ug/m324hr Graph
In-SituHobble Creek Bench B (PU365)2019-12-14 22:20 MT1.23 ug/m324hr Graph
In-SituCamelot (PU366)2019-12-14 22:20 MT0.30 ug/m324hr Graph
In-SituCamelot B (PU367)2019-12-14 22:20 MT0.25 ug/m324hr Graph
In-SituTaylorsville - Central (PU368)2019-12-14 22:20 MT3.51 ug/m324hr Graph
In-SituTaylorsville - Central B (PU369)2019-12-14 22:20 MT2.08 ug/m324hr Graph
In-SituBrockbank Dr (PU370)2019-12-14 22:20 MT0.18 ug/m324hr Graph
In-SituBrockbank Dr B (PU371)2019-12-14 22:20 MT0.31 ug/m324hr Graph
In-SituNugget (PU372)2019-12-14 22:20 MT5.82 ug/m324hr Graph
In-SituNugget B (PU373)2019-12-14 22:20 MT6.39 ug/m324hr Graph
In-SituBrooke Inside (PU374)2019-12-14 22:20 MT2.40 ug/m324hr Graph
In-SituBrooke Inside B (PU375)2019-12-14 22:20 MT1.59 ug/m324hr Graph
In-SituOrem 400W 75N (PU376)2019-12-14 22:20 MT0.00 ug/m324hr Graph
In-SituOrem 400W 75N B (PU377)2019-12-14 22:20 MT0.64 ug/m324hr Graph
In-SituOrem 600N 400W (PU378)2019-12-14 22:20 MT0.75 ug/m324hr Graph
In-SituOrem 600N 400W B (PU379)2019-12-14 22:20 MT0.61 ug/m324hr Graph
In-SituOrem 800S 150W powered (PU380)2019-12-14 22:20 MT0.37 ug/m324hr Graph
In-SituOrem 800S 150W powered B (PU381)2019-12-14 22:20 MT0.00 ug/m324hr Graph
In-SituOrem Academy of Sciences (PU382)2019-12-14 22:20 MT1.47 ug/m324hr Graph
In-SituOrem Academy of Sciences B (PU383)2019-12-14 22:20 MT2.12 ug/m324hr Graph
In-SituOrem Cherryhill Park (PU386)2019-12-14 22:20 MT61.99 ug/m324hr Graph
In-SituOrem Cherryhill Park B (PU387)2019-12-14 22:20 MT3.77 ug/m324hr Graph
In-SituOrem Fire Department #2 (PU388)2019-12-14 22:20 MT2.11 ug/m324hr Graph
In-SituOrem Fire Department #2 B (PU389)2019-12-14 22:20 MT2.07 ug/m324hr Graph
In-SituOrem Fire Department (PU390)2019-12-14 22:20 MT1.65 ug/m324hr Graph
In-SituOrem Fire Department B (PU391)2019-12-14 22:20 MT1.23 ug/m324hr Graph
In-SituOrem Foothill Park (PU392)2019-12-14 22:20 MT0.06 ug/m324hr Graph
In-SituOrem Foothill Park B (PU393)2019-12-14 22:20 MT0.01 ug/m324hr Graph
In-SituOrem Geneva Park (PU394)2019-12-14 22:20 MT1.23 ug/m324hr Graph
In-SituOrem Geneva Park B (PU395)2019-12-14 22:20 MT1.78 ug/m324hr Graph
In-SituOrem Lakeridge Junior High (PU398)2019-12-14 22:20 MT3.31 ug/m324hr Graph
In-SituOrem Lakeridge Junior High B (PU399)2019-12-14 22:20 MT34.81 ug/m324hr Graph
In-SituOrem Mountain View High (PU400)2019-12-14 22:20 MT0.88 ug/m324hr Graph
In-SituOrem Mountain View High B (PU401)2019-12-14 22:20 MT0.58 ug/m324hr Graph
In-SituOrem Nielsen's Grove Park (PU402)2019-12-14 22:20 MT2.61 ug/m324hr Graph
In-SituOrem Nielsen's Grove Park B (PU403)2019-12-14 22:20 MT3.10 ug/m324hr Graph
In-SituOrem Orchard Elementary (PU404)2019-12-14 22:20 MT0.15 ug/m324hr Graph
In-SituOrem Orchard Elementary B (PU405)2019-12-14 22:20 MT0.26 ug/m324hr Graph
In-SituOrem Public Works (PU406)2019-12-14 22:20 MT5.04 ug/m324hr Graph
In-SituOrem Public Works B (PU407)2019-12-14 22:20 MT4.40 ug/m324hr Graph
In-SituOrem Village on the Parkway (PU408)2019-12-14 22:20 MT2.59 ug/m324hr Graph
In-SituWillow Creek Hill (PU414)2019-12-14 22:20 MT4.28 ug/m324hr Graph
In-SituWillow Creek Hill B (PU415)2019-12-14 22:20 MT4.73 ug/m324hr Graph
In-Situ1027 Hollywood (PU416)2019-12-14 22:20 MT2.20 ug/m324hr Graph
In-Situ1027 Hollywood B (PU417)2019-12-14 22:20 MT1.90 ug/m324hr Graph
In-SituOrem Hillcrest Elementary (PU420)2019-12-14 22:20 MT1.52 ug/m324hr Graph
In-SituOrem Hillcrest Elementary (PU421)2019-12-14 22:20 MT1.74 ug/m324hr Graph
In-SituSouth Salt Lake (PU426)2019-12-14 22:20 MT9.83 ug/m324hr Graph
In-SituSouth Salt Lake B (PU427)2019-12-14 22:20 MT10.85 ug/m324hr Graph
In-SituCapitol Hill Construction (PU428)2019-12-14 22:20 MT1.88 ug/m324hr Graph
In-SituCapitol Hill Construction B (PU429)2019-12-14 22:20 MT1.56 ug/m324hr Graph
In-SituBrigham Fork Circle (PU430)2019-12-14 22:20 MT0.03 ug/m324hr Graph
In-SituBrigham Fork Circle B (PU431)2019-12-14 22:20 MT0.01 ug/m324hr Graph
In-SituCobble Knoll (PU436)2019-12-14 22:20 MT0.01 ug/m324hr Graph
In-SituCobble Knoll B (PU437)2019-12-14 22:20 MT0.09 ug/m324hr Graph
In-SituJuniper (PU440)2019-12-14 22:20 MT0.01 ug/m324hr Graph
In-SituJuniper B (PU441)2019-12-14 22:20 MT0.02 ug/m324hr Graph
In-SituPOut (PU442)2019-12-14 22:20 MT6.27 ug/m324hr Graph
In-SituPOut B (PU443)2019-12-14 22:20 MT2.30 ug/m324hr Graph
In-SituThe Aspen Moose Vacation Cabin (PU446)2019-12-14 22:20 MT0.22 ug/m324hr Graph
In-SituThe Aspen Moose Vacation Cabin B (PU447)2019-12-14 22:20 MT0.36 ug/m324hr Graph
In-SituSouth Weber B (PU450)2019-12-14 22:20 MT8.07 ug/m324hr Graph
In-SituSalem City Office (PU457)2019-12-14 22:20 MT6.54 ug/m324hr Graph
In-SituSalem City Office B (PU458)2019-12-14 22:20 MT10.06 ug/m324hr Graph
In-SituLindsey Gardens (PU461)2019-12-14 22:20 MT0.24 ug/m324hr Graph
In-SituTravers Mountian 3 B (PU463)2019-12-14 22:20 MT5.94 ug/m324hr Graph
In-SituSummit Park (PU468)2019-12-14 22:20 MT0.05 ug/m324hr Graph
In-SituSummit Park B (PU469)2019-12-14 22:20 MT0.30 ug/m324hr Graph
In-SituNorth Holladay (PU470)2019-12-14 22:20 MT0.29 ug/m324hr Graph
In-SituNorth Holladay B (PU471)2019-12-14 22:20 MT0.41 ug/m324hr Graph
In-SituLewis - Hooper (PU472)2019-12-14 22:20 MT1.21 ug/m324hr Graph
In-SituLewis - Hooper B (PU473)2019-12-14 22:20 MT1.11 ug/m324hr Graph
In-SituWVC-Outdoor (PU480)2019-12-14 22:20 MT4.00 ug/m324hr Graph
In-SituWVC-Outdoor B (PU481)2019-12-14 22:20 MT3.39 ug/m324hr Graph
In-SituMorningside (PU482)2019-12-14 22:20 MT0.00 ug/m324hr Graph
In-SituMorningside B (PU483)2019-12-14 22:20 MT0.02 ug/m324hr Graph
In-SituBothwell (PU484)2019-12-14 22:20 MT0.05 ug/m324hr Graph
In-SituBothwell B (PU485)2019-12-14 22:20 MT0.03 ug/m324hr Graph
In-Situ4th AveCat (PU486)2019-12-14 22:20 MT1.02 ug/m324hr Graph
In-Situ4th AveCat B (PU487)2019-12-14 22:20 MT1.20 ug/m324hr Graph
In-SituTracy Aviary (PU490)2019-12-14 22:20 MT1.48 ug/m324hr Graph
In-SituSnake Hill Farm (PU497)2019-12-14 22:20 MT6.15 ug/m324hr Graph
In-SituSnake Hill Farm B (PU498)2019-12-14 22:20 MT5.57 ug/m324hr Graph
In-SituLindon City - Murdock Canal Trail (PU521)2019-12-14 22:20 MT0.00 ug/m324hr Graph
In-SituLindon City - Murdock Canal Trail B (PU522)2019-12-14 22:20 MT0.71 ug/m324hr Graph
In-SituLindon City Center (PU523)2019-12-14 22:20 MT4.15 ug/m324hr Graph
In-SituLindon City Center B (PU524)2019-12-14 22:20 MT5.17 ug/m324hr Graph
In-SituLindon City Public Works (PU525)2019-12-14 22:20 MT4.01 ug/m324hr Graph
In-SituLindon City Public Works B (PU526)2019-12-14 22:20 MT3.23 ug/m324hr Graph
In-SituWSU Facilities Management (PU537)2019-12-14 22:20 MT0.63 ug/m324hr Graph
In-SituWSU Facilities Management B (PU538)2019-12-14 22:20 MT0.76 ug/m324hr Graph
In-SituWSU Marriott Health (PU539)2019-12-14 22:20 MT0.73 ug/m324hr Graph
In-SituWSU Marriott Health B (PU540)2019-12-14 22:20 MT0.76 ug/m324hr Graph
In-SituWSU McKay Education Building Childrens School (PU541)2019-12-14 22:20 MT5.74 ug/m324hr Graph
In-SituWSU McKay Education Building Childrens School B (PU542)2019-12-14 22:20 MT1.59 ug/m324hr Graph
In-SituWSU Public Safety Building (PU543)2019-12-14 22:20 MT2.30 ug/m324hr Graph
In-SituWSU Public Safety Building B (PU544)2019-12-14 22:20 MT2.55 ug/m324hr Graph
In-SituWSU Stewart Library (PU545)2019-12-14 22:20 MT1.04 ug/m324hr Graph
In-SituWSU Stewart Library B (PU546)2019-12-14 22:20 MT0.95 ug/m324hr Graph
In-SituSandy East Bench (PU547)2019-12-14 22:20 MT6.11 ug/m324hr Graph
In-SituSmart Pack Way (PU554)2019-12-14 22:20 MT1.56 ug/m324hr Graph
In-SituSmart Pack Way B (PU555)2019-12-14 22:20 MT1.17 ug/m324hr Graph
In-SituWest Valley 2920S 5990W (PU557)2019-12-14 22:20 MT2.13 ug/m324hr Graph
In-SituOgden NE Bench (PU558)2019-12-14 22:20 MT7.87 ug/m324hr Graph
In-SituOgden NE Bench B (PU559)2019-12-14 22:20 MT9.24 ug/m324hr Graph
In-SituSierra Park (PU568)2019-12-14 22:20 MT5.31 ug/m324hr Graph
In-SituSierra Park B (PU569)2019-12-14 22:20 MT6.33 ug/m324hr Graph
In-SituHealth Department (PU580)2019-12-14 22:20 MT3.64 ug/m324hr Graph
In-SituHealth Department B (PU581)2019-12-14 22:20 MT1.08 ug/m324hr Graph
In-SituDeer Hollow (PU584)2019-12-14 22:20 MT0.04 ug/m324hr Graph
In-SituDeer Hollow B (PU585)2019-12-14 22:20 MT0.05 ug/m324hr Graph
In-SituUtah Paperbox (PU588)2019-12-14 22:20 MT3.80 ug/m324hr Graph
In-SituUtah Paperbox B (PU589)2019-12-14 22:20 MT4.65 ug/m324hr Graph
In-SituOV_VIKING DR (PU590)2019-12-14 22:20 MT0.24 ug/m324hr Graph
In-SituOV_VIKING DR B (PU591)2019-12-14 22:20 MT0.08 ug/m324hr Graph
In-SituGrayrock Ct (PU596)2019-12-14 22:20 MT0.16 ug/m324hr Graph
In-SituGrayrock Ct B (PU597)2019-12-14 22:20 MT0.23 ug/m324hr Graph
In-SituWest Jordan (PU600)2019-12-14 22:20 MT2.77 ug/m324hr Graph
In-SituWest Jordan B (PU601)2019-12-14 22:20 MT2.10 ug/m324hr Graph
In-SituWest Jordan (PU608)2019-12-14 22:20 MT0.71 ug/m324hr Graph
In-SituWest Valley 2920S 5990W B (PU609)2019-12-14 22:20 MT1.70 ug/m324hr Graph
In-SituSandy East Bench B (PU610)2019-12-14 22:20 MT6.01 ug/m324hr Graph
In-SituOV_PRESERVE (PU623)2019-12-14 22:20 MT0.36 ug/m324hr Graph
In-SituOV_PRESERVE B (PU624)2019-12-14 22:20 MT0.29 ug/m324hr Graph
In-SituUVU Wasatch Campus (PU633)2019-12-14 22:20 MT169.63 ug/m324hr Graph
In-SituUVU Wasatch Campus B (PU634)2019-12-14 22:20 MT0.20 ug/m324hr Graph
In-SituFroerer 4House (PU635)2019-12-14 22:20 MT1.09 ug/m324hr Graph
In-SituFroerer 4House B (PU636)2019-12-14 22:20 MT1.27 ug/m324hr Graph
In-SituBuckboard (PU637)2019-12-14 22:20 MT0.09 ug/m324hr Graph
In-SituBuckboard B (PU638)2019-12-14 22:20 MT0.21 ug/m324hr Graph
In-SituInversion (PU639)2019-12-14 22:20 MT2.53 ug/m324hr Graph
In-SituInversion B (PU640)2019-12-14 22:20 MT3.47 ug/m324hr Graph
In-Situ1-800 Contacts (PU645)2019-12-14 22:20 MT3.22 ug/m324hr Graph
In-Situ1-800 Contacts B (PU646)2019-12-14 22:20 MT3.95 ug/m324hr Graph
In-SituAlta Drive (PU653)2019-12-14 22:20 MT0.74 ug/m324hr Graph
In-SituAlta Drive B (PU654)2019-12-14 22:20 MT0.41 ug/m324hr Graph
In-SituTraverse Mountain - Eagle Summit - Larkwood (PU655)2019-12-14 22:20 MT5.70 ug/m324hr Graph
In-SituTraverse Mountain - Eagle Summit - Larkwood B (PU656)2019-12-14 22:20 MT6.16 ug/m324hr Graph
In-SituDuchesne City Office (PU659)2019-12-14 22:20 MT0.11 ug/m324hr Graph
In-SituDuchesne City Office B (PU660)2019-12-14 22:20 MT0.16 ug/m324hr Graph
In-SituHidden Lake Top Lift (PU661)2019-12-14 22:20 MT0.00 ug/m324hr Graph
In-SituHidden Lake Top Lift B (PU662)2019-12-14 22:20 MT0.01 ug/m324hr Graph
In-SituSundown Top Lift (PU663)2019-12-14 22:20 MT0.02 ug/m324hr Graph
In-SituSundown Top Lift B (PU664)2019-12-14 22:20 MT0.01 ug/m324hr Graph
In-SituVillage Top Lift (PU667)2019-12-14 22:20 MT0.00 ug/m324hr Graph
In-SituVillage Top Lift B (PU668)2019-12-14 22:20 MT0.00 ug/m324hr Graph
In-SituSummit County Health Department Quinns Junction (PU671)2019-12-14 22:20 MT2.62 ug/m324hr Graph
In-SituSummit County Health Department Quinns Junction B (PU672)2019-12-14 22:20 MT2.11 ug/m324hr Graph
In-SituApril Mountain - Park City - UT (PU673)2019-12-14 22:20 MT1.69 ug/m324hr Graph
In-SituApril Mountain - Park City - UT B (PU674)2019-12-14 22:20 MT0.75 ug/m324hr Graph
In-SituAlpine Loop - Sundance - UT (PU679)2019-12-14 22:20 MT0.62 ug/m324hr Graph
In-SituAlpine Loop - Sundance - UT B (PU680)2019-12-14 22:20 MT0.66 ug/m324hr Graph
In-SituMeadow Park (PU685)2019-12-14 22:20 MT7.12 ug/m324hr Graph
In-SituMeadow Park B (PU686)2019-12-14 22:20 MT5.21 ug/m324hr Graph
In-SituWest Valley Hillsdale Elementary (PU687)2019-12-14 22:20 MT2.59 ug/m324hr Graph
In-SituWest Valley Hillsdale Elementary B (PU688)2019-12-14 22:20 MT2.20 ug/m324hr Graph
In-SituWest Valley Country Meadows Park (PU691)2019-12-14 22:20 MT2.09 ug/m324hr Graph
In-SituWest Valley Country Meadows Park B (PU692)2019-12-14 22:20 MT1.44 ug/m324hr Graph
In-SituWest Valley Valley Fair (PU695)2019-12-14 22:20 MT2.28 ug/m324hr Graph
In-SituWest Valley Valley Fair B (PU696)2019-12-14 22:20 MT3.46 ug/m324hr Graph
In-SituAF South (PU703)2019-12-14 22:20 MT3.92 ug/m324hr Graph
In-SituAF South B (PU704)2019-12-14 22:20 MT2.54 ug/m324hr Graph
In-SituWest Valley Brookfield Park (PU707)2019-12-14 22:20 MT2.54 ug/m324hr Graph
In-SituWest Valley Brookfield Park B (PU708)2019-12-14 22:20 MT1.81 ug/m324hr Graph
In-SituCopper Canyon Elementary School (PU710)2019-12-14 22:20 MT7.23 ug/m324hr Graph
In-SituCopper Canyon Elementary School B (PU711)2019-12-14 22:20 MT8.10 ug/m324hr Graph
In-SituGrantsville Elemantery (PU712)2019-12-14 22:20 MT0.42 ug/m324hr Graph
In-SituGrantsville Elemantery B (PU713)2019-12-14 22:20 MT0.26 ug/m324hr Graph
In-SituTremonton Jeanie Stevens Park (PU716)2019-12-14 22:20 MT1.62 ug/m324hr Graph
In-SituTremonton Jeanie Stevens Park B (PU717)2019-12-14 22:20 MT24.03 ug/m324hr Graph
In-SituTremonton Meadow Park (PU718)2019-12-14 22:20 MT2.56 ug/m324hr Graph
In-SituTremonton Meadow Park B (PU719)2019-12-14 22:20 MT2.10 ug/m324hr Graph
In-SituOrem Mount Timpanogos Park (PU720)2019-12-14 22:20 MT0.01 ug/m324hr Graph
In-SituOrem Mount Timpanogos Park B (PU721)2019-12-14 22:20 MT0.01 ug/m324hr Graph
In-SituTremonton Civic Commons (PU722)2019-12-14 22:20 MT1.68 ug/m324hr Graph
In-SituTremonton Civic Commons B (PU723)2019-12-14 22:20 MT1.09 ug/m324hr Graph
In-SituKeith House (PU724)2019-12-14 22:20 MT0.61 ug/m324hr Graph
In-SituKeith House B (PU725)2019-12-14 22:20 MT0.59 ug/m324hr Graph
In-SituLayton Valley View Dr. (PU726)2019-12-14 22:20 MT0.06 ug/m324hr Graph
In-SituLayton Valley View Dr. B (PU727)2019-12-14 22:20 MT0.01 ug/m324hr Graph
In-SituSyracuse Cemetery (PU728)2019-12-14 22:20 MT4.06 ug/m324hr Graph
In-SituSyracuse Cemetery B (PU729)2019-12-14 22:20 MT3.97 ug/m324hr Graph
In-SituReLeaf 2 (PU730)2019-12-14 22:20 MT1.83 ug/m324hr Graph
In-SituReLeaf 2 B (PU731)2019-12-14 22:20 MT1.75 ug/m324hr Graph
In-SituPatriot Hills (PU732)2019-12-14 22:20 MT1.81 ug/m324hr Graph
In-SituPatriot Hills B (PU733)2019-12-14 22:20 MT2.65 ug/m324hr Graph
In-SituTooele County School District Office (PU734)2019-12-14 22:20 MT3.77 ug/m324hr Graph
In-SituTooele County School District Office B (PU735)2019-12-14 22:20 MT2.57 ug/m324hr Graph
In-SituSummit County Health Dept Silver Creek Junction (PU736)2019-12-14 22:20 MT2.13 ug/m324hr Graph
In-SituSummit County Health Dept Silver Creek Junction B (PU737)2019-12-14 22:20 MT1.49 ug/m324hr Graph
In-SituKimberly Park (PU738)2019-12-14 22:20 MT3.95 ug/m324hr Graph
In-SituKimberly Park B (PU739)2019-12-14 22:20 MT3.66 ug/m324hr Graph
In-SituOstergaards (PU740)2019-12-14 22:20 MT2.44 ug/m324hr Graph
In-SituOstergaards B (PU741)2019-12-14 22:20 MT2.82 ug/m324hr Graph
In-SituPleasant View (PU742)2019-12-14 22:20 MT0.01 ug/m324hr Graph
In-SituWest Valley 1580W Nanette (PU743)2019-12-14 22:20 MT2.54 ug/m324hr Graph
In-SituPeachyAir (PU744)2019-12-14 22:20 MT4.47 ug/m324hr Graph
In-SituPeachyAir B (PU745)2019-12-14 22:20 MT3.64 ug/m324hr Graph
In-SituOV_Paradise Top Lift (PU746)2019-12-14 22:20 MT0.01 ug/m324hr Graph
In-SituOV_Paradise Top Lift B (PU747)2019-12-14 22:20 MT0.00 ug/m324hr Graph
In-SituCedar Hills - South (PU748)2019-12-14 22:20 MT3.35 ug/m324hr Graph
In-SituCedar Hills - South B (PU749)2019-12-14 22:20 MT3.91 ug/m324hr Graph
In-SituThunder Horse (PU752)2019-12-14 22:20 MT1.84 ug/m324hr Graph
In-SituThunder Horse B (PU753)2019-12-14 22:20 MT2.51 ug/m324hr Graph
In-SituJeremy Ranch (PU754)2019-12-14 22:20 MT0.34 ug/m324hr Graph
In-SituJeremy Ranch B (PU755)2019-12-14 22:20 MT0.45 ug/m324hr Graph
In-SituOquirrh Highlands (PU760)2019-12-14 22:20 MT1.19 ug/m324hr Graph
In-SituOquirrh Highlands B (PU761)2019-12-14 22:20 MT0.99 ug/m324hr Graph
In-SituMtAire-Canyon (PU762)2019-12-14 22:20 MT0.04 ug/m324hr Graph
In-SituMtAire-Canyon B (PU763)2019-12-14 22:20 MT0.07 ug/m324hr Graph
In-SituHarvest Park - Mapleton - UT (PU764)2019-12-14 22:20 MT4.06 ug/m324hr Graph
In-SituHarvest Park - Mapleton - UT B (PU765)2019-12-14 22:20 MT4.05 ug/m324hr Graph
In-SituSunset Dunes Way (PU766)2019-12-14 22:20 MT5.20 ug/m324hr Graph
In-SituSunset Dunes Way B (PU767)2019-12-14 22:20 MT5.26 ug/m324hr Graph
In-SituEdgemont (PU768)2019-12-14 22:20 MT1.44 ug/m324hr Graph
In-SituEdgemont B (PU769)2019-12-14 22:20 MT35.83 ug/m324hr Graph
In-SituShadow Valley (PU770)2019-12-14 22:20 MT0.18 ug/m324hr Graph
In-SituShadow Valley B (PU771)2019-12-14 22:20 MT0.16 ug/m324hr Graph
In-SituTerrace Hills (PU772)2019-12-14 22:20 MT0.04 ug/m324hr Graph
In-SituWest Valley 1580W Nanette B (PU773)2019-12-14 22:20 MT1.94 ug/m324hr Graph
In-SituWest Mountain Ranch (PU774)2019-12-14 22:20 MT1.61 ug/m324hr Graph
In-SituWest Mountain Ranch B (PU775)2019-12-14 22:20 MT1.77 ug/m324hr Graph
In-SituCaravan Lane (PU776)2019-12-14 22:20 MT0.00 ug/m324hr Graph
In-SituCaravan Lane B (PU777)2019-12-14 22:20 MT0.00 ug/m324hr Graph
In-SituZitchen (PU780)2019-12-14 22:20 MT0.01 ug/m324hr Graph
In-SituZitchen B (PU781)2019-12-14 22:20 MT0.01 ug/m324hr Graph
In-SituSummer Hill Dr. (PU782)2019-12-14 22:20 MT0.99 ug/m324hr Graph
In-SituWest Valley Gearld L. Wright Elementary (PU783)2019-12-14 22:20 MT2.47 ug/m324hr Graph
In-SituTraverse Mountain - Woodhaven (PU784)2019-12-14 22:20 MT9.57 ug/m324hr Graph
In-SituTraverse Mountain - Woodhaven B (PU785)2019-12-14 22:20 MT9.70 ug/m324hr Graph
In-SituMapleton East Bench (PU786)2019-12-14 22:20 MT1.64 ug/m324hr Graph
In-SituMapleton East Bench B (PU787)2019-12-14 22:20 MT1.70 ug/m324hr Graph
In-SituEaglewood GC (PU788)2019-12-14 22:20 MT0.05 ug/m324hr Graph
In-SituEaglewood GC B (PU789)2019-12-14 22:20 MT0.07 ug/m324hr Graph
In-SituEden Air Quality (PU790)2019-12-14 22:20 MT1.77 ug/m324hr Graph
In-SituEden Air Quality B (PU791)2019-12-14 22:20 MT2.01 ug/m324hr Graph
In-SituWest Valley Utah Cultural Celebration Center (PU792)2019-12-14 22:20 MT3.18 ug/m324hr Graph
In-SituWest Valley Utah Cultural Celebration Center B (PU793)2019-12-14 22:20 MT2.09 ug/m324hr Graph
In-SituWest Valley Gearld L. Wright Elementary B (PU794)2019-12-14 22:20 MT2.56 ug/m324hr Graph
In-SituOlympus Cove (PU795)2019-12-14 22:20 MT0.17 ug/m324hr Graph
In-SituOlympus Cove B (PU796)2019-12-14 22:20 MT0.15 ug/m324hr Graph
In-SituDugway K-12 School (PU797)2019-12-14 22:20 MT185.16 ug/m324hr Graph
In-SituDugway K-12 School B (PU798)2019-12-14 22:20 MT0.00 ug/m324hr Graph
In-SituGoshen Utah (PU803)2019-12-14 22:20 MT12.33 ug/m324hr Graph
In-SituGoshen Utah B (PU804)2019-12-14 22:20 MT11.42 ug/m324hr Graph
In-SituLayton Fire Department (PU807)2019-12-14 22:20 MT3.79 ug/m324hr Graph
In-SituLayton Fire Department B (PU808)2019-12-14 22:20 MT2.84 ug/m324hr Graph
In-SituSummit County Health Department Sheldon Richins Building (PU809)2019-12-14 22:20 MT8.89 ug/m324hr Graph
In-SituSummit County Health Department Sheldon Richins Building B (PU810)2019-12-14 22:20 MT8.44 ug/m324hr Graph
In-SituTooele Jr. High School (PU823)2019-12-14 22:20 MT1.62 ug/m324hr Graph
In-SituTooele Jr. High School B (PU824)2019-12-14 22:20 MT1.78 ug/m324hr Graph
In-SituLila Lane (PU827)2019-12-14 22:20 MT7.70 ug/m324hr Graph
In-SituLila Lane B (PU828)2019-12-14 22:20 MT6.71 ug/m324hr Graph
In-SituTooele County Bus Garage (PU829)2019-12-14 22:20 MT2.01 ug/m324hr Graph
In-SituTooele County Bus Garage B (PU830)2019-12-14 22:20 MT1.67 ug/m324hr Graph
In-SituSugar House Home (PU833)2019-12-14 22:20 MT0.09 ug/m324hr Graph
In-SituSugar House Home B (PU834)2019-12-14 22:20 MT0.01 ug/m324hr Graph
In-SituMurray UTOPIA Fiber Office (PU835)2019-12-14 22:20 MT9.36 ug/m324hr Graph
In-SituMurray UTOPIA Fiber Office B (PU836)2019-12-14 22:20 MT8.27 ug/m324hr Graph
In-SituOV_Mountain Green (PU841)2019-12-14 22:20 MT0.99 ug/m324hr Graph
In-SituOV_Mountain Green B (PU842)2019-12-14 22:20 MT0.69 ug/m324hr Graph
In-SituWest Valley Centennial Park (PU843)2019-12-14 22:20 MT2.83 ug/m324hr Graph
In-SituWest Valley Centennial Park B (PU844)2019-12-14 22:20 MT3.09 ug/m324hr Graph
In-SituPayson City Center (PU845)2019-12-14 22:20 MT5.24 ug/m324hr Graph
In-SituPayson City Center B (PU846)2019-12-14 22:20 MT5.47 ug/m324hr Graph
In-SituSummit County Health Department Henefer (PU847)2019-12-14 22:20 MT8.98 ug/m324hr Graph
In-SituSummit County Health Department Henefer B (PU848)2019-12-14 22:20 MT9.32 ug/m324hr Graph
In-SituSouth Cottonwood (PU849)2019-12-14 22:20 MT8.35 ug/m324hr Graph
In-SituSouth Cottonwood B (PU850)2019-12-14 22:20 MT9.97 ug/m324hr Graph
In-SituMeyers (PU851)2019-12-14 22:20 MT0.07 ug/m324hr Graph
In-SituMeyers B (PU852)2019-12-14 22:20 MT0.11 ug/m324hr Graph
In-SituNephi (PU853)2019-12-14 22:20 MT0.36 ug/m324hr Graph
In-SituNephi B (PU854)2019-12-14 22:20 MT0.37 ug/m324hr Graph
In-SituMohawk (PU857)2019-12-14 22:20 MT1.08 ug/m324hr Graph
In-SituMohawk B (PU858)2019-12-14 22:20 MT1.00 ug/m324hr Graph
In-SituKSEL (PU859)2019-12-14 22:20 MT0.68 ug/m324hr Graph
In-SituKSEL B (PU860)2019-12-14 22:20 MT0.53 ug/m324hr Graph
In-SituOV_Eden Hills (PU861)2019-12-14 22:20 MT0.69 ug/m324hr Graph
In-SituOV_Eden Hills B (PU862)2019-12-14 22:20 MT0.88 ug/m324hr Graph
In-SituLayton Weber Basin Water Conservancy (PU865)2019-12-14 22:20 MT5.90 ug/m324hr Graph
In-SituLayton Weber Basin Water Conservancy B (PU866)2019-12-14 22:20 MT4.75 ug/m324hr Graph
In-SituLegacy Village (PU869)2019-12-14 22:20 MT2.00 ug/m324hr Graph
In-SituLegacy Village B (PU870)2019-12-14 22:20 MT1.88 ug/m324hr Graph
In-SituSomerset At Miller Crossing (PU875)2019-12-14 22:20 MT12.17 ug/m324hr Graph
In-SituSomerset At Miller Crossing B (PU876)2019-12-14 22:20 MT12.25 ug/m324hr Graph
In-SituWest Valley Fire Department Station 75 (PU877)2019-12-14 22:20 MT35.96 ug/m324hr Graph
In-SituWest Valley Fire Department Station 75 B (PU878)2019-12-14 22:20 MT2.25 ug/m324hr Graph
In-SituWest Valley Granger High (PU879)2019-12-14 22:20 MT2.79 ug/m324hr Graph
In-SituWest Valley Granger High B (PU880)2019-12-14 22:20 MT3.05 ug/m324hr Graph
In-SituColony Park City (PU881)2019-12-14 22:20 MT0.06 ug/m324hr Graph
In-SituColony Park City B (PU882)2019-12-14 22:20 MT0.09 ug/m324hr Graph
In-SituDover St. Mary's 2 (PU883)2019-12-14 22:20 MT0.47 ug/m324hr Graph
In-SituDover St. Mary's 2 B (PU884)2019-12-14 22:20 MT0.92 ug/m324hr Graph
In-SituNSL Edgewood (PU885)2019-12-14 22:20 MT0.78 ug/m324hr Graph
In-SituNSL Edgewood B (PU886)2019-12-14 22:20 MT0.85 ug/m324hr Graph
In-SituRobidoux (PU890)2019-12-14 22:20 MT4.57 ug/m324hr Graph
In-SituRobidoux B (PU891)2019-12-14 22:20 MT4.86 ug/m324hr Graph
In-SituThe Rosewood (PU892)2019-12-14 22:20 MT10.31 ug/m324hr Graph
In-Situ3798 East Sunnydale Lane - Salt Lake City - Utah 84108 (PU893)2019-12-14 21:20 MT2.38 ug/m324hr Graph
In-Situ4th Ave (PU894)2019-12-14 22:20 MT0.09 ug/m324hr Graph
In-Situ680 eec4 (PU896)2019-12-14 22:20 MT6.18 ug/m324hr Graph
In-SituBountiful High School (PU899)2019-12-14 22:20 MT0.19 ug/m324hr Graph
In-SituBrigham City 800E Beecher Ave. (PU900)2019-12-14 22:20 MT1.88 ug/m324hr Graph
In-SituBrigham City Adele C Young Intermediate (PU901)2019-12-14 22:20 MT2.96 ug/m324hr Graph
In-SituBrigham City Cemetery (PU902)2019-12-14 22:20 MT1.92 ug/m324hr Graph
In-SituBrigham City Rees Pioneer Park (PU903)2019-12-14 22:20 MT2.74 ug/m324hr Graph
In-SituBrigham City Snow Park (PU904)2019-12-14 22:20 MT2.86 ug/m324hr Graph
In-SituClearfield High School (PU906)2019-12-14 22:20 MT3.75 ug/m324hr Graph
In-SituCottonwood Heights (PU907)2019-12-14 22:20 MT0.18 ug/m324hr Graph
In-SituCranberry Hill (PU908)2019-12-14 22:20 MT7.20 ug/m324hr Graph
In-SituDavis High School (PU909)2019-12-14 22:20 MT29.29 ug/m324hr Graph
In-SituEast Millcreek (PU910)2019-12-14 22:20 MT0.34 ug/m324hr Graph
In-SituEmigration Canyon - Rattlesnake Point (PU911)2019-12-14 22:20 MT0.04 ug/m324hr Graph
In-SituEmigration Canyon 1 (PU912)2019-12-14 22:20 MT1.61 ug/m324hr Graph
In-SituEntheos Academy - Magna Campus (PU913)2019-12-14 22:20 MT2.95 ug/m324hr Graph
In-SituEntheos Academy Kearns Campus (PU914)2019-12-14 22:20 MT3.91 ug/m324hr Graph
In-SituFarmington High School (PU915)2019-12-14 22:20 MT4.36 ug/m324hr Graph
In-SituHeber Valley Airport (PU916)2019-12-14 22:20 MT0.89 ug/m324hr Graph
In-SituJM Outside (PU920)2019-12-14 22:20 MT3.71 ug/m324hr Graph
In-SituKaysville (PU921)2019-12-14 22:20 MT3.54 ug/m324hr Graph
In-SituKeith Freeman (PU922)2019-12-14 22:20 MT0.25 ug/m324hr Graph
In-SituLayton City 3000 N Church (PU923)2019-12-14 22:20 MT4.35 ug/m324hr Graph
In-SituLayton City Public Works (PU924)2019-12-14 22:20 MT6.50 ug/m324hr Graph
In-SituLayton Flint St. & Layton Pkwy (PU925)2019-12-14 22:20 MT3.27 ug/m324hr Graph
In-SituLayton High School (PU926)2019-12-14 22:20 MT0.00 ug/m324hr Graph
In-SituLayton High School (PU927)2019-12-14 22:20 MT4.36 ug/m324hr Graph
In-SituLehi central (PU929)2019-12-14 22:20 MT9.71 ug/m324hr Graph
In-SituLindon 600S Lindon Park Dr. (PU930)2019-12-14 22:20 MT7.52 ug/m324hr Graph
In-Situlostcoast (PU932)2019-12-14 22:20 MT11.48 ug/m324hr Graph
In-SituLynwood (PU933)2019-12-14 22:20 MT1.98 ug/m324hr Graph
In-SituMasterControl (PU934)2019-12-14 22:20 MT4.34 ug/m324hr Graph
In-SituMiddle Canyon Elementary (PU936)2019-12-14 22:20 MT0.00 ug/m324hr Graph
In-SituMidvale 300E Fort Union (PU937)2019-12-14 22:20 MT8.55 ug/m324hr Graph
In-SituMidvale 700E Dorado Ct. (PU938)2019-12-14 22:20 MT7.06 ug/m324hr Graph
In-SituMidvale Fire Station Park (PU939)2019-12-14 22:20 MT10.04 ug/m324hr Graph
In-SituMidvale Jordan Valley School (PU940)2019-12-14 22:20 MT12.61 ug/m324hr Graph
In-SituMidvale Millenium Way (PU941)2019-12-14 22:20 MT6.78 ug/m324hr Graph
In-SituMidvale St. Therese Catholic Church (PU942)2019-12-14 22:20 MT5.26 ug/m324hr Graph
In-SituMidvale974E North Union Ave. (PU943)2019-12-14 22:20 MT8.20 ug/m324hr Graph
In-SituMikalm (PU944)2019-12-14 22:20 MT0.13 ug/m324hr Graph
In-SituMillcreek Dell (PU946)2019-12-14 22:20 MT0.00 ug/m324hr Graph
In-Situmiller (PU947)2019-12-14 22:20 MT1.12 ug/m324hr Graph
In-SituMiller Home (PU948)2019-12-14 22:20 MT8.17 ug/m324hr Graph
In-SituMittLn (PU949)2019-12-14 22:20 MT10.42 ug/m324hr Graph
In-SituMtn. Green - Cottonwoods (PU950)2019-12-14 22:20 MT0.68 ug/m324hr Graph
In-SituMurray 200E 4600S (PU951)2019-12-14 22:20 MT5.81 ug/m324hr Graph
In-SituMurray 4500S Triton Dr. (PU952)2019-12-14 22:20 MT9.49 ug/m324hr Graph
In-SituMurray 500W Cherry St. (PU953)2019-12-14 22:20 MT3.38 ug/m324hr Graph
In-SituMurray 70W 6570S (PU954)2019-12-14 22:20 MT6.42 ug/m324hr Graph
In-SituMurray Animal Shelter (PU955)2019-12-14 22:20 MT5.68 ug/m324hr Graph
In-SituMurray Ann Dell Ln. 1830E (PU956)2019-12-14 22:20 MT11.00 ug/m324hr Graph
In-SituMurray Birkhill-Fireclay (PU957)2019-12-14 22:20 MT5.53 ug/m324hr Graph
In-SituMurray City Cemetary (PU958)2019-12-14 22:20 MT8.82 ug/m324hr Graph
In-SituMurray Cottonwood Presbyterian Church (PU959)2019-12-14 22:20 MT11.00 ug/m324hr Graph
In-SituMurray Grant Park (PU961)2019-12-14 22:20 MT7.59 ug/m324hr Graph
In-SituMurray Horizon Elementary (PU962)2019-12-14 22:20 MT6.88 ug/m324hr Graph
In-SituMurray Jordan River Parkway Trail (PU963)2019-12-14 22:20 MT4.24 ug/m324hr Graph
In-SituMurray Southwood Park (PU964)2019-12-14 22:20 MT10.20 ug/m324hr Graph
In-SituMurray Viewmont Elementary (PU965)2019-12-14 22:20 MT4.84 ug/m324hr Graph
In-SituMurray3400S West Temple (PU966)2019-12-14 22:20 MT9.49 ug/m324hr Graph
In-SituMurrayHillcrest Junior High (PU967)2019-12-14 22:20 MT6.18 ug/m324hr Graph
In-SituNorth Hillsdale (PU968)2019-12-14 22:20 MT25.68 ug/m324hr Graph
In-SituNorthridge High School (PU969)2019-12-14 22:20 MT6.41 ug/m324hr Graph
In-SituOdyssey Elementary (PU970)2019-12-14 22:20 MT4.32 ug/m324hr Graph
In-SituOrem Bonneville Park (PU972)2019-12-14 22:20 MT8.50 ug/m324hr Graph
In-SituOV_DurfeeCreek (PU973)2019-12-14 22:20 MT0.00 ug/m324hr Graph
In-SituOwahee St - Skyline Ridge (PU974)2019-12-14 22:20 MT3.76 ug/m324hr Graph
In-SituOz 7bd4 (PU975)2019-12-14 22:20 MT5.75 ug/m324hr Graph
In-SituPayson 800S Canyon Rd. (PU976)2019-12-14 22:20 MT1.86 ug/m324hr Graph
In-SituPayson Power Plant (PU977)2019-12-14 22:20 MT8.82 ug/m324hr Graph
In-SituPelican Pond (PU978)2019-12-14 22:20 MT5.00 ug/m324hr Graph
In-SituPerry Park (PU979)2019-12-14 22:20 MT0.61 ug/m324hr Graph
In-SituReLEAF UTAH HQ1 (PU981)2019-12-14 22:20 MT17.18 ug/m324hr Graph
In-SituRose Springs Elementary (PU982)2019-12-14 22:20 MT13.38 ug/m324hr Graph
In-SituRosewood Garage (PU983)2019-12-14 22:20 MT4.09 ug/m324hr Graph
In-SituSCHD Oakley Town Hall (PU985)2019-12-14 22:20 MT2.13 ug/m324hr Graph
In-SituSettlement Canyon Elementary (PU986)2019-12-14 22:20 MT7.14 ug/m324hr Graph
In-SituSF Parks and Rec Office (PU987)2019-12-14 22:20 MT8.27 ug/m324hr Graph
In-SituSilverHawk (PU990)2019-12-14 22:20 MT1.30 ug/m324hr Graph
In-SituSpanish Fork Cemetery (PU991)2019-12-14 22:20 MT6.06 ug/m324hr Graph
In-SituSt Andrew 2 (PU992)2019-12-14 22:20 MT4.53 ug/m324hr Graph
In-SituSterling Elementary (PU993)2019-12-14 22:20 MT1.04 ug/m324hr Graph
In-SituSuncrest - Vista Ridge Court (PU994)2019-12-14 22:20 MT15.80 ug/m324hr Graph
In-SituSuncrest North Point (PU995)2019-12-14 22:20 MT33.05 ug/m324hr Graph
In-SituT Dee (PU997)2019-12-14 22:20 MT1.49 ug/m324hr Graph
In-SituTanners (PU998)2019-12-14 22:20 MT19.39 ug/m324hr Graph
In-SituTaylor Canyon (PU999)2019-12-14 22:20 MT1.32 ug/m324hr Graph
In-SituTravers Mountian 3 (PUR03)2019-12-14 22:20 MT6.50 ug/m324hr Graph
In-SituOakdale (PUR08)2019-12-14 22:20 MT10.36 ug/m324hr Graph
In-SituMountain View Elementary (PUR09)2019-12-14 22:20 MT5.93 ug/m324hr Graph
In-SituMountain View Elementary B (PUR18)2019-12-14 22:20 MT5.31 ug/m324hr Graph
In-SituSherwood Hills 2 (PUR23)2019-12-14 22:20 MT1.34 ug/m324hr Graph
In-SituSpanish Fork Canyon (PUR24)2019-12-14 22:20 MT7.14 ug/m324hr Graph
In-SituLakeshore 2 (PUR33)2019-12-14 22:20 MT6.02 ug/m324hr Graph
In-SituHelper (PUR40)2019-12-14 22:20 MT132.54 ug/m324hr Graph
In-Situ90.9fm KRCL (PUR46)2019-12-14 22:20 MT24.17 ug/m324hr Graph
In-SituSunnyside (PUR48)2019-12-14 22:20 MT6.71 ug/m324hr Graph
In-SituKimball Junction P2 (PUR63)2019-12-14 22:20 MT0.20 ug/m324hr Graph
In-SituPinecrest - Park City (PUR74)2019-12-14 22:20 MT1.34 ug/m324hr Graph
In-SituSpanish Fork Canyon B (PUR76)2019-12-14 22:20 MT0.00 ug/m324hr Graph
In-SituPinecrest - Park City B (PUR80)2019-12-14 22:20 MT1.55 ug/m324hr Graph
In-SituKimball Junction P1 (PUR82)2019-12-14 22:20 MT10.41 ug/m324hr Graph